Time;durP1;ratioP1;P1;durP2;ratioP2;P2;SDS_P1;SDS_P2;PMS_P1;PMS_P2;Temp;Humidity;BMP_temperature;BMP_pressure;BME280_temperature;BME280_humidity;BME280_pressure;Samples;Min_cycle;Max_cycle;Signal;HPM_P1;HPM_P2
2023/03/04 00:01:34;;;;;;;;;;;;;;;9.06;39.02;99638.97;4446270;32;34915;-66
2023/03/04 00:04:02;;;;;;;;;;;;;;;9.06;38.94;99636.31;4447517;32;32010;-65
2023/03/04 00:06:29;;;;;;;;;;;;;;;8.86;39.17;99640.38;4437522;32;34232;-62
2023/03/04 00:08:56;;;;;;;;;;;;;;;8.75;39.58;99640.25;4445001;32;33636;-61
2023/03/04 00:11:23;;;;;;;;;;;;;;;8.39;39.93;99651.59;4441700;32;34162;-64
2023/03/04 00:13:50;;;;;;;;;;;;;;;8.84;39.12;99638.75;4439505;32;34360;-66
2023/03/04 00:16:18;;;;;;;;;;;;;;;8.93;39.55;99642.63;4439894;32;35343;-64
2023/03/04 00:18:45;;;;;;;;;;;;;;;8.96;39.54;99637.06;4442188;32;34492;-64
2023/03/04 00:21:12;;;;;;;;;;;;;;;9.00;38.81;99643.87;4441592;32;34185;-65
2023/03/04 00:23:40;;;;;;;;;;;;;;;8.90;38.69;99642.81;4438856;32;33437;-64
2023/03/04 00:26:08;;;;;;;;;;;;;;;9.02;38.09;99644.63;4438994;32;34264;-64
2023/03/04 00:28:35;;;;;;;;;;;;;;;8.92;38.81;99639.06;4437950;32;34191;-64
2023/03/04 00:31:03;;;;;;;;;;;;;;;8.88;38.04;99636.72;4437657;32;35515;-66
2023/03/04 00:33:30;;;;;;;;;;;;;;;8.88;38.08;99639.41;4438736;32;34020;-64
2023/03/04 00:35:58;;;;;;;;;;;;;;;8.87;37.61;99638.53;4437501;32;34043;-64
2023/03/04 00:38:25;;;;;;;;;;;;;;;8.75;38.15;99644.72;4444999;32;32652;-65
2023/03/04 00:40:53;;;;;;;;;;;;;;;8.85;37.38;99638.62;4450444;32;34493;-64
2023/03/04 00:43:20;;;;;;;;;;;;;;;8.75;37.39;99634.06;4452819;32;33163;-65
2023/03/04 00:45:47;;;;;;;;;;;;;;;8.79;37.28;99639.06;4439550;32;34155;-67
2023/03/04 00:48:15;;;;;;;;;;;;;;;8.65;37.79;99638.31;4443194;32;35031;-64
2023/03/04 00:50:43;;;;;;;;;;;;;;;8.68;37.34;99627.44;4451861;32;34042;-64
2023/03/04 00:53:10;;;;;;;;;;;;;;;8.35;37.45;99632.25;4454176;32;34491;-65
2023/03/04 00:55:37;;;;;;;;;;;;;;;8.71;36.92;99624.56;4451786;32;33974;-63
2023/03/04 00:58:04;;;;;;;;;;;;;;;8.79;36.99;99624.88;4440381;32;33944;-63
2023/03/04 01:00:32;;;;;;;;;;;;;;;9.01;36.17;99625.06;4438077;32;35174;-63
2023/03/04 01:02:59;;;;;;;;;;;;;;;8.91;36.36;99620.50;4439973;32;33333;-63
2023/03/04 01:05:26;;;;;;;;;;;;;;;9.03;36.09;99619.66;4446374;32;34012;-63
2023/03/04 01:07:53;;;;;;;;;;;;;;;9.01;36.18;99619.72;4442730;32;32775;-63
2023/03/04 01:10:21;;;;;;;;;;;;;;;8.82;36.14;99614.81;4440928;32;35172;-63
2023/03/04 01:12:48;;;;;;;;;;;;;;;8.98;35.72;99614.59;4438396;32;34680;-64
2023/03/04 01:15:15;;;;;;;;;;;;;;;9.14;35.39;99606.38;4438499;32;33532;-65
2023/03/04 01:17:43;;;;;;;;;;;;;;;9.17;35.35;99608.81;4445493;32;34085;-63
2023/03/04 01:20:10;;;;;;;;;;;;;;;9.11;35.21;99606.59;4441643;32;33781;-64
2023/03/04 01:22:37;;;;;;;;;;;;;;;8.96;35.69;99602.34;4443587;32;33430;-63
2023/03/04 01:25:05;;;;;;;;;;;;;;;9.02;35.67;99600.09;4450784;32;34088;-63
2023/03/04 01:27:32;;;;;;;;;;;;;;;8.89;35.58;99612.59;4446850;32;34168;-63
2023/03/04 01:29:59;;;;;;;;;;;;;;;9.02;35.47;99608.12;4444526;32;35193;-63
2023/03/04 01:32:28;;;;;;;;;;;;;;;8.75;37.19;99604.69;4437508;32;34298;-63
2023/03/04 01:34:55;;;;;;;;;;;;;;;8.78;35.95;99604.50;4440569;32;33982;-63
2023/03/04 01:37:23;;;;;;;;;;;;;;;9.14;35.23;99601.03;4437121;32;34216;-65
2023/03/04 01:39:50;;;;;;;;;;;;;;;9.18;34.99;99599.88;4445994;32;35193;-63
2023/03/04 01:42:18;;;;;;;;;;;;;;;9.16;35.11;99598.28;4437483;32;33425;-63
2023/03/04 01:44:46;;;;;;;;;;;;;;;9.19;35.22;99598.06;4450987;32;32724;-63
2023/03/04 01:47:13;;;;;;;;;;;;;;;9.35;34.70;99582.63;4435105;32;34488;-65
2023/03/04 01:49:40;;;;;;;;;;;;;;;9.27;35.07;99588.50;4445882;32;34122;-64
2023/03/04 01:52:11;;;;;;;;;;;;;;;9.16;35.36;99583.09;4435544;32;33533;-66
2023/03/04 01:54:39;;;;;;;;;;;;;;;9.22;35.13;99584.50;4440827;32;34064;-63
2023/03/04 01:57:12;;;;;;;;;;;;;;;9.23;35.17;99581.69;4445140;32;34724;-63
2023/03/04 01:59:39;;;;;;;;;;;;;;;9.26;34.89;99580.63;4443292;32;33793;-64
2023/03/04 02:02:06;;;;;;;;;;;;;;;9.37;34.54;99582.50;4458411;32;33253;-63
2023/03/04 02:04:35;;;;;;;;;;;;;;;9.12;34.96;99578.06;4443077;32;35151;-62
2023/03/04 02:07:02;;;;;;;;;;;;;;;9.00;34.80;99577.16;4434428;32;34483;-65
2023/03/04 02:09:30;;;;;;;;;;;;;;;8.98;34.81;99571.91;4441863;32;34721;-64
2023/03/04 02:11:57;;;;;;;;;;;;;;;9.01;34.91;99579.69;4442835;32;31911;-64
2023/03/04 02:14:25;;;;;;;;;;;;;;;9.09;34.55;99573.81;4434456;32;34162;-64
2023/03/04 02:16:52;;;;;;;;;;;;;;;8.98;34.82;99571.06;4445771;32;35442;-64
2023/03/04 02:19:38;;;;;;;;;;;;;;;8.76;35.16;99566.37;4441366;32;34059;-64
2023/03/04 02:22:05;;;;;;;;;;;;;;;8.75;35.20;99564.66;4435738;32;33281;-64
2023/03/04 02:24:42;;;;;;;;;;;;;;;8.77;34.85;99568.94;4442926;32;33928;-62
2023/03/04 02:27:10;;;;;;;;;;;;;;;8.88;34.87;99564.66;4438578;32;33052;-64
2023/03/04 02:29:37;;;;;;;;;;;;;;;8.67;35.39;99567.00;4444419;32;32749;-62
2023/03/04 02:32:05;;;;;;;;;;;;;;;8.91;34.70;99557.28;4439168;32;33450;-65
2023/03/04 02:34:33;;;;;;;;;;;;;;;8.95;34.80;99550.75;4434233;32;34175;-64
2023/03/04 02:37:00;;;;;;;;;;;;;;;9.04;34.79;99544.78;4434126;32;34425;-63
2023/03/04 02:39:35;;;;;;;;;;;;;;;9.06;34.88;99553.53;4436648;32;34050;-62
2023/03/04 02:42:02;;;;;;;;;;;;;;;8.25;35.67;99548.53;4445476;32;33178;-64
2023/03/04 02:44:33;;;;;;;;;;;;;;;8.88;34.88;99545.97;4439363;32;33554;-63
2023/03/04 02:47:01;;;;;;;;;;;;;;;8.52;36.88;99548.44;4443315;32;32250;-62
2023/03/04 02:49:30;;;;;;;;;;;;;;;8.91;34.76;99538.59;4441141;32;33941;-63
2023/03/04 02:51:58;;;;;;;;;;;;;;;8.98;34.85;99531.84;4445830;32;34566;-63
2023/03/04 02:54:25;;;;;;;;;;;;;;;9.18;34.26;99534.91;4440841;32;33564;-62
2023/03/04 02:56:54;;;;;;;;;;;;;;;8.98;34.86;99528.34;4444505;32;35078;-63
2023/03/04 02:59:22;;;;;;;;;;;;;;;9.21;34.09;99532.03;4441254;32;33941;-62
2023/03/04 03:01:49;;;;;;;;;;;;;;;9.17;33.66;99522.53;4456052;32;33132;-62
2023/03/04 03:04:17;;;;;;;;;;;;;;;8.99;34.31;99525.56;4443676;32;33456;-63
2023/03/04 03:06:44;;;;;;;;;;;;;;;8.77;35.02;99520.91;4438170;32;34289;-63
2023/03/04 03:09:12;;;;;;;;;;;;;;;8.72;34.93;99520.37;4442930;32;32923;-63
2023/03/04 03:11:39;;;;;;;;;;;;;;;8.71;35.47;99526.69;4441389;32;33598;-63
2023/03/04 03:14:07;;;;;;;;;;;;;;;8.91;34.20;99521.75;4443216;32;34205;-61
2023/03/04 03:16:34;;;;;;;;;;;;;;;8.79;35.08;99526.13;4437667;32;35277;-62
2023/03/04 03:19:03;;;;;;;;;;;;;;;8.84;34.82;99521.31;4441541;32;32288;-62
2023/03/04 03:21:30;;;;;;;;;;;;;;;8.93;34.03;99526.00;4435276;32;34281;-61
2023/03/04 03:23:57;;;;;;;;;;;;;;;8.75;34.95;99511.31;4436348;32;33913;-64
2023/03/04 03:26:25;;;;;;;;;;;;;;;8.78;35.14;99517.28;4439326;32;35371;-61
2023/03/04 03:28:52;;;;;;;;;;;;;;;8.92;34.01;99516.28;4443426;32;34009;-63
2023/03/04 03:31:20;;;;;;;;;;;;;;;8.83;34.68;99514.28;4443908;32;34381;-63
2023/03/04 03:33:47;;;;;;;;;;;;;;;8.57;35.33;99497.44;4442186;32;34172;-63
2023/03/04 03:36:14;;;;;;;;;;;;;;;8.51;35.82;99504.06;4437352;32;34100;-62
2023/03/04 03:38:42;;;;;;;;;;;;;;;8.71;35.81;99502.66;4443531;32;34187;-62
2023/03/04 03:41:09;;;;;;;;;;;;;;;8.85;34.70;99499.00;4440396;32;33558;-61
2023/03/04 03:43:36;;;;;;;;;;;;;;;8.89;34.35;99503.16;4443637;32;33845;-63
2023/03/04 03:46:04;;;;;;;;;;;;;;;8.97;34.46;99498.13;4437915;32;34202;-62
2023/03/04 03:48:31;;;;;;;;;;;;;;;8.77;35.60;99496.03;4435451;32;35162;-64
2023/03/04 03:50:58;;;;;;;;;;;;;;;8.96;34.01;99498.25;4435180;32;32064;-62
2023/03/04 03:53:26;;;;;;;;;;;;;;;8.95;34.11;99496.53;4435481;32;35405;-65
2023/03/04 03:55:53;;;;;;;;;;;;;;;8.82;34.40;99488.53;4438420;32;35021;-63
2023/03/04 03:58:22;;;;;;;;;;;;;;;8.79;34.69;99491.44;4442769;32;34032;-64
2023/03/04 04:00:49;;;;;;;;;;;;;;;8.74;34.47;99498.94;4451693;32;33085;-63
2023/03/04 04:03:16;;;;;;;;;;;;;;;8.63;34.76;99489.87;4447712;32;32723;-62
2023/03/04 04:05:43;;;;;;;;;;;;;;;8.67;34.76;99493.19;4440311;32;34106;-64
2023/03/04 04:08:16;;;;;;;;;;;;;;;8.03;36.12;99502.97;4447043;32;33041;-64
2023/03/04 04:10:44;;;;;;;;;;;;;;;8.59;35.00;99490.19;4436773;32;33072;-64
2023/03/04 04:13:11;;;;;;;;;;;;;;;8.12;36.53;99499.63;4434845;32;34842;-62
2023/03/04 04:15:38;;;;;;;;;;;;;;;8.15;35.97;99492.31;4434736;32;33581;-60
2023/03/04 04:18:06;;;;;;;;;;;;;;;8.01;36.97;99495.03;4435518;32;34749;-63
2023/03/04 04:20:33;;;;;;;;;;;;;;;8.04;36.95;99494.84;4435038;32;33542;-64
2023/03/04 04:23:00;;;;;;;;;;;;;;;7.92;36.90;99493.84;4436869;32;32796;-61
2023/03/04 04:25:28;;;;;;;;;;;;;;;7.85;36.78;99489.91;4442902;32;34486;-61
2023/03/04 04:27:55;;;;;;;;;;;;;;;7.78;37.24;99490.44;4445517;32;34244;-62
2023/03/04 04:30:22;;;;;;;;;;;;;;;7.70;37.35;99490.94;4436456;32;33664;-61
2023/03/04 04:32:50;;;;;;;;;;;;;;;7.70;37.96;99488.25;4446939;32;34114;-62
2023/03/04 04:35:17;;;;;;;;;;;;;;;7.71;37.60;99479.34;4437303;32;35466;-61
2023/03/04 04:37:44;;;;;;;;;;;;;;;7.55;38.32;99473.31;4437428;32;33711;-62
2023/03/04 04:40:12;;;;;;;;;;;;;;;7.46;38.09;99486.28;4435655;32;33321;-64
2023/03/04 04:42:39;;;;;;;;;;;;;;;7.32;38.74;99485.47;4434282;32;34635;-61
2023/03/04 04:45:07;;;;;;;;;;;;;;;7.34;38.67;99479.09;4437985;32;32499;-61
2023/03/04 04:47:34;;;;;;;;;;;;;;;7.43;38.43;99482.97;4434553;32;33631;-62
2023/03/04 04:50:01;;;;;;;;;;;;;;;7.04;39.22;99487.28;4435445;32;34114;-63
2023/03/04 04:52:28;;;;;;;;;;;;;;;6.78;40.14;99480.13;4440752;32;33258;-61
2023/03/04 04:54:56;;;;;;;;;;;;;;;6.89;40.28;99480.28;4445200;32;34859;-64
2023/03/04 04:57:23;;;;;;;;;;;;;;;7.00;40.11;99480.47;4437363;32;34189;-64
2023/03/04 04:59:50;;;;;;;;;;;;;;;7.24;39.93;99481.50;4450034;32;33908;-61
2023/03/04 05:02:18;;;;;;;;;;;;;;;7.02;40.36;99477.69;4442118;32;33959;-62
2023/03/04 05:04:45;;;;;;;;;;;;;;;6.86;40.72;99469.81;4435617;32;34101;-61
2023/03/04 05:07:12;;;;;;;;;;;;;;;6.87;40.82;99471.53;4435113;32;32994;-62
2023/03/04 05:09:40;;;;;;;;;;;;;;;6.73;41.54;99473.25;4440440;32;33324;-60
2023/03/04 05:12:07;;;;;;;;;;;;;;;6.44;44.43;99471.56;4437357;32;37052;-62
2023/03/04 05:14:34;;;;;;;;;;;;;;;6.41;43.42;99475.28;4443153;32;35497;-61
2023/03/04 05:17:02;;;;;;;;;;;;;;;6.43;43.19;99468.06;4439154;32;32911;-62
2023/03/04 05:19:29;;;;;;;;;;;;;;;6.40;44.30;99476.22;4448322;32;33375;-64
2023/03/04 05:21:56;;;;;;;;;;;;;;;6.76;42.31;99473.06;4446264;32;34233;-67
2023/03/04 05:24:24;;;;;;;;;;;;;;;6.84;42.34;99475.25;4450323;32;34078;-62
2023/03/04 05:26:51;;;;;;;;;;;;;;;6.78;42.35;99469.47;4440298;32;34103;-62
2023/03/04 05:29:18;;;;;;;;;;;;;;;6.82;42.40;99471.84;4441198;32;32127;-61
2023/03/04 05:31:45;;;;;;;;;;;;;;;5.90;44.63;99480.13;4439349;32;34026;-63
2023/03/04 05:34:13;;;;;;;;;;;;;;;6.03;45.92;99477.63;4446381;32;34241;-65
2023/03/04 05:36:40;;;;;;;;;;;;;;;6.33;43.94;99476.72;4448933;32;34055;-64
2023/03/04 05:39:07;;;;;;;;;;;;;;;6.73;42.74;99477.72;4441847;32;34527;-64
2023/03/04 05:41:34;;;;;;;;;;;;;;;6.44;43.65;99477.75;4449740;32;33925;-63
2023/03/04 05:44:01;;;;;;;;;;;;;;;6.63;42.98;99484.59;4438811;32;34377;-66
2023/03/04 05:46:29;;;;;;;;;;;;;;;6.29;43.81;99481.34;4444470;32;31861;-64
2023/03/04 05:48:59;;;;;;;;;;;;;;;6.75;43.43;99487.31;4440609;32;33853;-64
2023/03/04 05:51:26;;;;;;;;;;;;;;;7.08;42.28;99488.78;4436901;32;35426;-64
2023/03/04 05:53:54;;;;;;;;;;;;;;;6.68;43.82;99485.16;4439611;32;33923;-67
2023/03/04 05:56:21;;;;;;;;;;;;;;;7.33;42.11;99481.88;4452324;32;35405;-64
2023/03/04 05:58:48;;;;;;;;;;;;;;;7.26;42.45;99493.88;4452823;32;33470;-65
2023/03/04 06:01:16;;;;;;;;;;;;;;;7.69;41.64;99489.22;4442868;32;32809;-63
2023/03/04 06:03:43;;;;;;;;;;;;;;;7.21;42.78;99502.16;4438973;32;33854;-66
2023/03/04 06:06:11;;;;;;;;;;;;;;;7.88;41.30;99505.69;4435609;32;33754;-64
2023/03/04 06:08:38;;;;;;;;;;;;;;;8.07;40.93;99499.97;4437844;32;33607;-62
2023/03/04 06:11:05;;;;;;;;;;;;;;;8.13;40.74;99506.69;4441572;32;35147;-61
2023/03/04 06:13:32;;;;;;;;;;;;;;;7.99;41.64;99509.44;4441936;32;34970;-68
2023/03/04 06:16:00;;;;;;;;;;;;;;;7.56;43.51;99510.50;4440608;32;33786;-67
2023/03/04 06:18:27;;;;;;;;;;;;;;;7.59;42.42;99520.94;4452286;32;33509;-65
2023/03/04 06:20:58;;;;;;;;;;;;;;;8.01;41.21;99520.84;4449364;32;33454;-64
2023/03/04 06:23:26;;;;;;;;;;;;;;;7.78;41.82;99525.06;4454444;32;34099;-66
2023/03/04 06:25:53;;;;;;;;;;;;;;;8.49;40.52;99523.81;4452413;32;34002;-64
2023/03/04 06:28:21;;;;;;;;;;;;;;;9.15;39.48;99514.66;4439773;32;33299;-65
2023/03/04 06:30:50;;;;;;;;;;;;;;;9.35;38.70;99526.53;4448782;32;33926;-65
2023/03/04 06:33:18;;;;;;;;;;;;;;;9.53;38.38;99529.66;4439685;32;33950;-64
2023/03/04 06:35:45;;;;;;;;;;;;;;;9.49;38.85;99529.03;4448309;32;32820;-69
2023/03/04 06:38:12;;;;;;;;;;;;;;;9.54;38.25;99537.56;4440799;32;31964;-66
2023/03/04 06:40:40;;;;;;;;;;;;;;;9.07;39.57;99547.22;4449747;32;34120;-66
2023/03/04 06:43:07;;;;;;;;;;;;;;;8.43;41.41;99538.41;4448141;32;33036;-66
2023/03/04 06:45:34;;;;;;;;;;;;;;;8.86;40.28;99538.94;4448217;32;33034;-69
2023/03/04 06:48:02;;;;;;;;;;;;;;;9.41;39.20;99543.94;4451710;32;32038;-71
2023/03/04 06:50:29;;;;;;;;;;;;;;;9.98;38.41;99537.88;4454080;32;34044;-66
2023/03/04 06:52:56;;;;;;;;;;;;;;;11.40;35.68;99536.59;4445717;32;34543;-70
2023/03/04 06:55:24;;;;;;;;;;;;;;;12.56;34.20;99539.41;4442258;32;33948;-70
2023/03/04 06:57:51;;;;;;;;;;;;;;;11.71;34.90;99545.63;4441370;32;33518;-69
2023/03/04 07:00:18;;;;;;;;;;;;;;;10.99;36.33;99537.25;4446086;32;34003;-67
2023/03/04 07:02:45;;;;;;;;;;;;;;;10.58;37.05;99534.19;4445498;32;34152;-67
2023/03/04 07:05:13;;;;;;;;;;;;;;;10.40;38.08;99539.16;4438804;32;34105;-68
2023/03/04 07:07:40;;;;;;;;;;;;;;;10.30;38.41;99540.81;4445219;32;33511;-67
2023/03/04 07:10:08;;;;;;;;;;;;;;;10.65;39.58;99534.53;4439944;32;34289;-68
2023/03/04 07:12:36;;;;;;;;;;;;;;;10.93;36.87;99541.25;4439406;32;34688;-70
2023/03/04 07:15:03;;;;;;;;;;;;;;;10.46;38.09;99536.00;4439064;32;33923;-67
2023/03/04 07:17:30;;;;;;;;;;;;;;;10.06;39.17;99531.97;4438383;32;32028;-68
2023/03/04 07:19:58;;;;;;;;;;;;;;;10.45;38.73;99534.28;4447708;32;34008;-68
2023/03/04 07:22:25;;;;;;;;;;;;;;;10.17;39.77;99537.34;4445408;32;33749;-69
2023/03/04 07:24:52;;;;;;;;;;;;;;;10.95;38.01;99537.50;4444526;32;34180;-67
2023/03/04 07:27:19;;;;;;;;;;;;;;;10.88;38.25;99527.38;4438492;32;32539;-67
2023/03/04 07:29:47;;;;;;;;;;;;;;;10.58;38.94;99534.19;4437768;32;33617;-67
2023/03/04 07:32:14;;;;;;;;;;;;;;;10.62;38.91;99522.25;4446433;32;34434;-67
2023/03/04 07:34:41;;;;;;;;;;;;;;;10.98;38.35;99525.69;4447569;32;34152;-66
2023/03/04 07:37:08;;;;;;;;;;;;;;;10.76;38.83;99523.00;4442937;32;33188;-65
2023/03/04 07:39:36;;;;;;;;;;;;;;;10.99;38.67;99511.31;4444100;32;32884;-66
2023/03/04 07:42:03;;;;;;;;;;;;;;;10.53;39.48;99517.66;4439381;32;34136;-68
2023/03/04 07:44:30;;;;;;;;;;;;;;;10.78;39.29;99524.56;4444837;32;32982;-66
2023/03/04 07:46:58;;;;;;;;;;;;;;;11.35;38.51;99523.56;4448868;32;33426;-66
2023/03/04 07:49:25;;;;;;;;;;;;;;;11.35;38.38;99525.38;4442354;32;34454;-68
2023/03/04 07:51:52;;;;;;;;;;;;;;;11.89;37.77;99524.53;4442465;32;34270;-66
2023/03/04 07:54:19;;;;;;;;;;;;;;;13.01;34.70;99517.56;4439464;32;33749;-66
2023/03/04 07:56:47;;;;;;;;;;;;;;;14.61;32.50;99520.00;4436466;32;34385;-67
2023/03/04 07:59:14;;;;;;;;;;;;;;;15.94;29.74;99520.44;4437406;32;35022;-67
2023/03/04 08:01:41;;;;;;;;;;;;;;;16.62;28.56;99517.06;4440987;32;33231;-69
2023/03/04 08:04:11;;;;;;;;;;;;;;;15.53;30.09;99524.53;4440578;32;33363;-68
2023/03/04 08:06:39;;;;;;;;;;;;;;;15.34;30.02;99514.69;4441174;32;32010;-67
2023/03/04 08:09:06;;;;;;;;;;;;;;;15.41;30.20;99521.22;4436222;32;34168;-68
2023/03/04 08:11:35;;;;;;;;;;;;;;;15.11;30.73;99525.03;4442936;32;34161;-67
2023/03/04 08:14:02;;;;;;;;;;;;;;;14.97;30.75;99515.59;4444938;32;32913;-68
2023/03/04 08:16:29;;;;;;;;;;;;;;;14.62;30.59;99519.00;4443019;32;33203;-66
2023/03/04 08:18:58;;;;;;;;;;;;;;;14.38;31.16;99512.22;4443718;32;34022;-66
2023/03/04 08:21:25;;;;;;;;;;;;;;;13.65;31.84;99519.03;4446778;32;34800;-66
2023/03/04 08:23:53;;;;;;;;;;;;;;;13.84;31.94;99515.53;4443368;32;33900;-66
2023/03/04 08:26:27;;;;;;;;;;;;;;;13.41;32.77;99517.56;4442830;32;33997;-68
2023/03/04 08:28:55;;;;;;;;;;;;;;;13.54;32.67;99517.31;4440749;32;32411;-66
2023/03/04 08:31:23;;;;;;;;;;;;;;;12.47;33.55;99514.19;4439886;32;34193;-66
2023/03/04 08:33:51;;;;;;;;;;;;;;;12.43;34.31;99514.63;4448850;32;34442;-68
2023/03/04 08:36:19;;;;;;;;;;;;;;;12.23;35.11;99517.16;4449074;32;33449;-68
2023/03/04 08:38:46;;;;;;;;;;;;;;;12.12;34.05;99515.38;4447124;32;34020;-66
2023/03/04 08:41:14;;;;;;;;;;;;;;;14.58;30.82;99513.06;4436098;32;33856;-66
2023/03/04 08:43:43;;;;;;;;;;;;;;;14.06;31.02;99507.16;4445911;32;32768;-67
2023/03/04 08:46:10;;;;;;;;;;;;;;;13.88;31.46;99517.78;4442619;32;32185;-66
2023/03/04 08:48:37;;;;;;;;;;;;;;;14.05;31.17;99510.81;4440416;32;34173;-66
2023/03/04 08:51:08;;;;;;;;;;;;;;;13.54;31.43;99503.88;4446693;32;34323;-66
2023/03/04 08:53:36;;;;;;;;;;;;;;;13.35;31.83;99501.12;4440769;32;34006;-68
2023/03/04 08:56:04;;;;;;;;;;;;;;;13.33;31.71;99508.50;4442022;32;32379;-66
2023/03/04 08:58:31;;;;;;;;;;;;;;;14.07;30.41;99498.09;4447506;32;34173;-67
2023/03/04 09:00:59;;;;;;;;;;;;;;;14.26;29.47;99497.22;4441819;32;35651;-66
2023/03/04 09:03:26;;;;;;;;;;;;;;;15.37;28.53;99496.38;4441387;32;34135;-66
2023/03/04 09:05:54;;;;;;;;;;;;;;;16.54;26.92;99493.56;4443263;32;32405;-67
2023/03/04 09:08:21;;;;;;;;;;;;;;;17.84;25.07;99484.28;4438761;32;34155;-66
2023/03/04 09:10:50;;;;;;;;;;;;;;;17.95;25.72;99482.28;4440631;32;32928;-68
2023/03/04 09:13:18;;;;;;;;;;;;;;;17.27;25.84;99489.56;4453020;32;34038;-68
2023/03/04 09:15:46;;;;;;;;;;;;;;;16.25;28.46;99487.62;4417550;32;793429;-67
2023/03/04 09:18:13;;;;;;;;;;;;;;;15.75;27.89;99486.34;4451183;32;35294;-70
2023/03/04 09:20:40;;;;;;;;;;;;;;;15.74;28.13;99483.81;4437718;32;35273;-67
2023/03/04 09:23:08;;;;;;;;;;;;;;;15.84;28.29;99481.88;4445871;32;34440;-67
2023/03/04 09:25:36;;;;;;;;;;;;;;;16.07;27.67;99485.78;4436785;32;33263;-67
2023/03/04 09:28:03;;;;;;;;;;;;;;;15.93;27.99;99480.94;4452832;32;34443;-68
2023/03/04 09:30:31;;;;;;;;;;;;;;;15.81;27.73;99490.28;4445200;32;32950;-68
2023/03/04 09:32:58;;;;;;;;;;;;;;;16.83;26.85;99491.56;4448718;32;33720;-70
2023/03/04 09:35:25;;;;;;;;;;;;;;;16.65;26.96;99484.34;4444047;32;33293;-68
2023/03/04 09:37:53;;;;;;;;;;;;;;;15.93;27.94;99482.81;4447028;32;35162;-69
2023/03/04 09:40:22;;;;;;;;;;;;;;;16.63;28.10;99478.25;4441498;32;34703;-67
2023/03/04 09:42:50;;;;;;;;;;;;;;;16.96;26.82;99475.75;4442666;32;34345;-68
2023/03/04 09:45:20;;;;;;;;;;;;;;;16.73;27.08;99470.03;4449886;32;33405;-68
2023/03/04 09:47:47;;;;;;;;;;;;;;;16.68;27.64;99469.66;4446722;32;32755;-69
2023/03/04 09:50:14;;;;;;;;;;;;;;;16.25;27.77;99472.28;4440292;32;34377;-68
2023/03/04 09:53:01;;;;;;;;;;;;;;;16.72;27.33;99469.16;4437272;32;34267;-67
2023/03/04 09:55:33;;;;;;;;;;;;;;;16.88;27.66;99462.19;4449999;32;33685;-67
2023/03/04 09:58:06;;;;;;;;;;;;;;;17.50;26.47;99462.75;4448700;32;34076;-67
2023/03/04 10:00:52;;;;;;;;;;;;;;;16.84;27.76;99461.66;4445987;32;34092;-67
2023/03/04 10:03:38;;;;;;;;;;;;;;;17.36;26.27;99455.25;4439871;32;34126;-68
2023/03/04 10:06:06;;;;;;;;;;;;;;;17.36;26.39;99447.16;4446938;32;32258;-67
2023/03/04 10:08:37;;;;;;;;;;;;;;;17.07;26.63;99450.28;4446659;32;34024;-69
2023/03/04 10:11:12;;;;;;;;;;;;;;;17.51;26.06;99441.94;4441504;32;33587;-67
2023/03/04 10:13:45;;;;;;;;;;;;;;;17.79;26.76;99443.38;4439477;32;34197;-67
2023/03/04 10:16:13;;;;;;;;;;;;;;;17.17;26.87;99440.16;4444575;32;33186;-66
2023/03/04 10:18:55;;;;;;;;;;;;;;;16.90;26.87;99438.56;4444069;32;35375;-69
2023/03/04 10:21:30;;;;;;;;;;;;;;;17.05;27.09;99445.03;4439688;32;35020;-66
2023/03/04 10:23:59;;;;;;;;;;;;;;;17.45;26.70;99444.28;4440839;32;35224;-66
2023/03/04 10:26:28;;;;;;;;;;;;;;;17.51;26.63;99431.97;4438783;32;32093;-69
2023/03/04 10:28:55;;;;;;;;;;;;;;;17.56;27.07;99436.84;4447785;32;34150;-67
2023/03/04 10:31:36;;;;;;;;;;;;;;;17.53;27.34;99437.19;4445426;32;32966;-67
2023/03/04 10:34:03;;;;;;;;;;;;;;;17.06;27.55;99437.78;4444637;32;34115;-66
2023/03/04 10:36:31;;;;;;;;;;;;;;;16.43;28.09;99426.28;4437270;32;33632;-67
2023/03/04 10:38:58;;;;;;;;;;;;;;;16.76;27.39;99421.94;4436112;32;34066;-68
2023/03/04 10:41:26;;;;;;;;;;;;;;;16.74;27.97;99413.09;4435925;32;34225;-66
2023/03/04 10:44:20;;;;;;;;;;;;;;;17.08;27.05;99403.28;4450969;32;34132;-66
2023/03/04 10:46:47;;;;;;;;;;;;;;;17.07;26.91;99407.00;4439152;32;33178;-66
2023/03/04 10:49:16;;;;;;;;;;;;;;;17.24;27.34;99397.94;4447711;32;34241;-66
2023/03/04 10:51:44;;;;;;;;;;;;;;;17.31;27.15;99403.53;4439075;32;34309;-68
2023/03/04 10:54:17;;;;;;;;;;;;;;;17.14;26.80;99394.50;4440965;32;35261;-67
2023/03/04 10:56:58;;;;;;;;;;;;;;;17.32;27.46;99389.81;4441472;32;32954;-67
2023/03/04 10:59:45;;;;;;;;;;;;;;;17.27;27.26;99381.38;4435015;32;34352;-67
2023/03/04 11:02:14;;;;;;;;;;;;;;;17.13;27.28;99373.91;4442216;32;33745;-67
2023/03/04 11:04:41;;;;;;;;;;;;;;;17.61;26.77;99383.09;4446420;32;34374;-67
2023/03/04 11:07:09;;;;;;;;;;;;;;;17.52;26.80;99381.41;4445831;32;34720;-68
2023/03/04 11:09:38;;;;;;;;;;;;;;;16.60;28.06;99378.59;4452770;32;34108;-69
2023/03/04 11:12:13;;;;;;;;;;;;;;;17.02;26.89;99366.97;4449050;32;34148;-67
2023/03/04 11:14:44;;;;;;;;;;;;;;;16.53;27.09;99366.72;4438441;32;33018;-70
2023/03/04 11:17:14;;;;;;;;;;;;;;;17.67;26.22;99371.59;4439012;32;34429;-66
2023/03/04 11:19:42;;;;;;;;;;;;;;;16.79;26.88;99360.44;4442866;32;33068;-67
2023/03/04 11:22:09;;;;;;;;;;;;;;;17.34;26.26;99360.75;4440658;32;32890;-67
2023/03/04 11:24:36;;;;;;;;;;;;;;;16.96;26.56;99359.50;4440543;32;34181;-68
2023/03/04 11:27:04;;;;;;;;;;;;;;;16.77;26.92;99364.16;4438532;32;33700;-67
2023/03/04 11:29:35;;;;;;;;;;;;;;;16.66;26.51;99352.78;4445389;32;34126;-69
2023/03/04 11:32:23;;;;;;;;;;;;;;;16.37;26.83;99347.75;4439655;32;34288;-66
2023/03/04 11:34:53;;;;;;;;;;;;;;;16.35;27.25;99355.19;4450864;32;33934;-69
2023/03/04 11:37:26;;;;;;;;;;;;;;;16.02;27.54;99350.44;4439211;32;31499;-68
2023/03/04 11:39:56;;;;;;;;;;;;;;;15.48;28.15;99352.38;4443636;32;34784;-65
2023/03/04 11:42:42;;;;;;;;;;;;;;;16.27;27.23;99337.06;4441143;32;34226;-65
2023/03/04 11:45:13;;;;;;;;;;;;;;;15.47;28.12;99341.72;4440252;32;34209;-66
2023/03/04 11:48:01;;;;;;;;;;;;;;;14.70;28.58;99332.38;4441015;32;33744;-67
2023/03/04 11:50:29;;;;;;;;;;;;;;;15.02;28.73;99324.63;4440172;32;35300;-66
2023/03/04 11:53:00;;;;;;;;;;;;;;;14.72;28.71;99325.84;4445057;32;33219;-66
2023/03/04 11:55:39;;;;;;;;;;;;;;;15.04;28.43;99328.03;4440522;32;33889;-65
2023/03/04 11:58:07;;;;;;;;;;;;;;;14.76;28.53;99321.84;4434492;32;34132;-65
2023/03/04 12:00:37;;;;;;;;;;;;;;;14.93;28.03;99322.00;4441183;32;33339;-69
2023/03/04 12:03:11;;;;;;;;;;;;;;;15.25;28.12;99316.09;4442498;32;34931;-67
2023/03/04 12:05:51;;;;;;;;;;;;;;;14.76;29.03;99321.00;4446557;32;33216;-66
2023/03/04 12:08:20;;;;;;;;;;;;;;;14.82;29.14;99315.84;4439019;32;33451;-68
2023/03/04 12:10:50;;;;;;;;;;;;;;;15.54;28.25;99308.59;4441415;32;34352;-66
2023/03/04 12:13:29;;;;;;;;;;;;;;;15.23;28.99;99307.31;4443448;32;34112;-68
2023/03/04 12:16:00;;;;;;;;;;;;;;;14.73;29.48;99302.44;4431065;32;34688;-66
2023/03/04 12:18:46;;;;;;;;;;;;;;;14.13;30.33;99308.28;4443540;32;32561;-66
2023/03/04 12:21:32;;;;;;;;;;;;;;;14.97;29.74;99305.41;4443910;32;33828;-66
2023/03/04 12:24:08;;;;;;;;;;;;;;;14.30;30.78;99306.66;4450842;32;35314;-67
2023/03/04 12:26:45;;;;;;;;;;;;;;;14.57;30.03;99292.34;4440673;32;32780;-67
2023/03/04 12:29:14;;;;;;;;;;;;;;;15.02;30.22;99286.91;4445434;32;33892;-67
2023/03/04 12:31:42;;;;;;;;;;;;;;;15.26;30.23;99291.69;4448246;32;32382;-66
2023/03/04 12:34:28;;;;;;;;;;;;;;;15.12;30.45;99287.69;4445933;32;35185;-67
2023/03/04 12:37:04;;;;;;;;;;;;;;;15.60;30.32;99286.41;4440241;32;34288;-66
2023/03/04 12:39:31;;;;;;;;;;;;;;;15.61;29.21;99274.59;4441956;32;32495;-66
2023/03/04 12:42:08;;;;;;;;;;;;;;;15.30;30.02;99284.13;4443527;32;35555;-67
2023/03/04 12:44:38;;;;;;;;;;;;;;;14.77;30.52;99280.47;4444000;32;34211;-67
2023/03/04 12:47:24;;;;;;;;;;;;;;;15.25;30.22;99273.81;4437604;32;33903;-67
2023/03/04 12:49:58;;;;;;;;;;;;;;;15.39;30.28;99269.72;4436834;32;34399;-68
2023/03/04 12:52:32;;;;;;;;;;;;;;;15.27;30.75;99268.25;4437950;32;35568;-67
2023/03/04 12:55:01;;;;;;;;;;;;;;;15.10;31.19;99265.44;4450121;32;34866;-68
2023/03/04 12:57:30;;;;;;;;;;;;;;;15.37;30.95;99261.75;4443293;32;33950;-66
2023/03/04 13:00:00;;;;;;;;;;;;;;;15.46;30.55;99256.44;4445514;32;33355;-67
2023/03/04 13:02:46;;;;;;;;;;;;;;;15.04;30.96;99252.56;4444894;32;33153;-66